Record high temperature 44.9°C Record low temperature -0.3°C Record high gust 85.1 km/h Record high average 77.7 km/h Record daily rain 109.1 mm Record low windchill -4.5°C Record high barometer 1043.6 hPa Record low barometer 978.0 hPa
Daily high pressure 1019.0 mb Daily low pressure 1015.2 mb Daily low windchill 11.8°C Daily high heat index 16.8°C Daily high gust speed 14.8 kmh SSW Daily high average speed 10.2 kmh SSW
Estación de MeteoMurcia.com -------- Murcia-Puente Tocinos
Ultima grabación a: 12:10 Data: 25 February 2017, time of next update: 12:20
Tiempo actualmostly cloudy Temperatura actual15.9°C (60.6°F), Temperatura aparente 15.1°C
Temperatura máxima (desde medianoche)16.8°C at: 11:52 Temperatura mínima (desde medianoche)11.8°C at: 08:19
Velocidad media del viento (diez minutos)5.6 kmh (3.0 kts) Dirección del viento (diez minutos)WSW (240°)
Temperatura aparente 15.9°C ráfagas maxima (última hora)10.4 kmh (5.6 kts) at: 12:06
ráfagas maxima (desde medianoche)14.8 kmh (8.0 kts) at: 06:24 Maximo media de un minuto (desde medianoche)10.2 kmh (5.5 kts) at: 07:01
Lluvia (última hora)0.0 mm Lluvia (desde medianoche)0.0 mm (0.00 in.)---
Lluvia Este mes 4.1 mm (0.16 in.) Lluvia Hasta la fecha este año62.8 mm (2.47 in.)
Lluvia máxima por minuto (última hora)0.0 mm/min Lluvia maxima por hora (últimas 6 horas)0.0 mm/hora
Lluvia de ayer 0.0 mm Punto de rocío 9.3°C (Wet Bulb :12.5°C )
Humedad 65 %, Humidex 16.9°C Barómetro corregido a msl1018.7 mb
cambio de presión-0.2 mb (última hora) Tendencia (últimas 1 hora)ESTACIONARIO
cambio de presión (últimas 12 horas)+3.4 mb cambio de presión (últimas 6 horas)+2.6 mb
Current Temp. Interna 22.6°C
Current Hum. Interna 51%


Última imagen cámara web


Weather report/warning/Metars

Alicante / El Altet, Spain (LEAL) 38-17N 000-33W 31M
Feb 25, 2017 - 05:30 AM EST / 2017.02.25 1030 UTC
Wind: from the E (100 degrees) at 7 MPH (6 KT) (direction variable):0
Visibility: greater than 7 mile(s):0
Sky conditions: mostly cloudy
Temperature: 59 F (15 C)
Dew Point: 51 F (11 C)
Relative Humidity: 76%
Pressure (altimeter): 30.15 in. Hg (1021 hPa)
ob: LEAL 251030Z 10006KT 070V130 9999 FEW010 BKN025 15/11 Q1021 NOSIG
cycle: 10
Murcia / San Javier, Spain (LELC) 37-47N 000-48W 3M
Feb 25, 2017 - 05:00 AM EST / 2017.02.25 1000 UTC
Wind: from the E (100 degrees) at 3 MPH (3 KT) (direction variable):0
Visibility: greater than 7 mile(s):0
Sky conditions: mostly cloudy
Temperature: 60 F (16 C)
Dew Point: 55 F (13 C)
Relative Humidity: 82%
Pressure (altimeter): 30.12 in. Hg (1020 hPa)
ob: LELC 251000Z 10003KT 070V170 9999 FEW020 BKN027 16/13 Q1020 NOSIG
cycle: 10
Murcia / Alcantarilla, Spain (LERI) 37-57N 001-14W 75M
Feb 25, 2017 - 05:00 AM EST / 2017.02.25 1000 UTC
Wind: Variable at 2 MPH (2 KT):0
Visibility: greater than 7 mile(s):0
Sky conditions: mostly clear
Temperature: 57 F (14 C)
Dew Point: 46 F (8 C)
Relative Humidity: 67%
Pressure (altimeter): 30.12 in. Hg (1020 hPa)
ob: LERI 251000Z VRB02KT 9999 FEW025 14/08 Q1020 NOSIG
cycle: 10
Gerona / Costa Brava, Spain (LEGE) 41-54N 002-46E 129M
Feb 25, 2017 - 05:30 AM EST / 2017.02.25 1030 UTC
Wind: Variable at 1 MPH (1 KT):0
Visibility: greater than 7 mile(s):0
Temperature: 50 F (10 C)
Dew Point: 37 F (3 C)
Relative Humidity: 61%
Pressure (altimeter): 30.12 in. Hg (1020 hPa)
ob: LEGE 251030Z VRB01KT CAVOK 10/03 Q1020
cycle: 10
Madri-Colmenar, Spain (LECV) 40-39N 003-44W
Feb 25, 2017 - 05:00 AM EST / 2017.02.25 1000 UTC
Wind: Variable at 1 MPH (1 KT):0
Visibility: greater than 7 mile(s):0
Temperature: 53 F (12 C)
Dew Point: 35 F (2 C)
Relative Humidity: 50%
Pressure (altimeter): 30.12 in. Hg (1020 hPa)
ob: LECV 251000Z VRB01KT CAVOK 12/02 Q1020
cycle: 10
Asturias / Aviles, Spain (LEAS) 43-33N 006-02W 130M
Feb 25, 2017 - 05:30 AM EST / 2017.02.25 1030 UTC
Wind: Variable at 2 MPH (2 KT):0
Visibility: greater than 7 mile(s):0
Temperature: 55 F (13 C)
Dew Point: 42 F (6 C)
Relative Humidity: 62%
Pressure (altimeter): 30.12 in. Hg (1020 hPa)
ob: LEAS 251030Z VRB02KT CAVOK 13/06 Q1020 NOSIG
cycle: 10
Almeria / Aeropuerto, Spain (LEAM) 36-51N 002-23W 21M
Feb 25, 2017 - 05:30 AM EST / 2017.02.25 1030 UTC
Wind: from the E (100 degrees) at 9 MPH (8 KT):0
Visibility: greater than 7 mile(s):0
Sky conditions: mostly clear
Temperature: 64 F (18 C)
Dew Point: 51 F (11 C)
Relative Humidity: 63%
Pressure (altimeter): 30.12 in. Hg (1020 hPa)
ob: LEAM 251030Z 10008KT 9999 FEW020 18/11 Q1020
cycle: 10
Pamplona / Noain, Spain (LEPP) 42-46N 001-38W 453M
Feb 25, 2017 - 05:30 AM EST / 2017.02.25 1030 UTC
Wind: Calm:0
Visibility: greater than 7 mile(s):0
Temperature: 48 F (9 C)
Dew Point: 32 F (0 C)
Relative Humidity: 53%
Pressure (altimeter): 30.12 in. Hg (1020 hPa)
ob: LEPP 251030Z 00000KT CAVOK 09/00 Q1020
cycle: 10
Badajoz / Talavera La Real, Spain (LEBZ) 38-53N 006-49W 192M
Feb 25, 2017 - 05:00 AM EST / 2017.02.25 1000 UTC
Wind: Variable at 1 MPH (1 KT):0
Visibility: less than 1 mile:0
Sky conditions: obscured
Weather: fog
Temperature: 46 F (8 C)
Dew Point: 46 F (8 C)
Relative Humidity: 100%
Pressure (altimeter): 30.18 in. Hg (1022 hPa)
ob: LEBZ 251000Z VRB01KT 0500 R31/0650U FG VV001 08/08 Q1022
cycle: 10
Albacete / Los Llanos, Spain (LEAB) 38-57N 001-51W 704M
Feb 25, 2017 - 05:00 AM EST / 2017.02.25 1000 UTC
Wind: from the NNW (340 degrees) at 7 MPH (6 KT) (direction variable):0
Visibility: greater than 7 mile(s):0
Temperature: 44 F (7 C)
Dew Point: 33 F (1 C)
Relative Humidity: 65%
Pressure (altimeter): 30.15 in. Hg (1021 hPa)
ob: LEAB 251000Z 34006KT 310V030 CAVOK 07/01 Q1021 NOSIG
cycle: 10



La informacion se graba a intervalos de 2 minutos, pero hay info grabada cada minuto. Optimizado para 800*600 y Color verdadero. Use el boton de

Use the RECARGA en su navegador para recojer la ulima info.

Clicar aquí para regarga diaria de medias/extremas del mes














Created by "Weather Display" software version 10.37S at this start time/date 13:34:23 19/02/2017

La estación de MeteoMurcia.com, publica sus datos en los siguientes proyectos:

Meteoclimatic www.awekas.at

W3Counter
Web Analytics